Time;durP1;ratioP1;P1;durP2;ratioP2;P2;SDS_P1;SDS_P2;PMS_P1;PMS_P2;Temp;Humidity;BMP_temperature;BMP_pressure;BME280_temperature;BME280_humidity;BME280_pressure;Samples;Min_cycle;Max_cycle;Signal;HPM_P1;HPM_P2
2022/12/04 00:00:07;;;;;;;60.70;28.90;;;;;;;1.50;87.48;101596.13;104138;1319;37166;-68
2022/12/04 00:03:01;;;;;;;62.40;29.40;;;;;;;1.47;87.54;101592.63;104143;1319;37202;-71
2022/12/04 00:05:36;;;;;;;69.90;33.10;;;;;;;1.46;87.68;101585.73;104120;1320;37130;-70
2022/12/04 00:08:10;;;;;;;62.50;29.10;;;;;;;1.47;87.81;101585.59;104185;1319;38154;-71
2022/12/04 00:10:46;;;;;;;62.00;29.70;;;;;;;1.52;87.83;101589.63;104019;1319;36892;-74
2022/12/04 00:13:20;;;;;;;78.80;35.60;;;;;;;1.51;87.88;101587.38;103995;1324;174720;-74
2022/12/04 00:15:54;;;;;;;57.00;28.30;;;;;;;1.48;87.93;101587.34;104145;1319;37018;-74
2022/12/04 00:18:28;;;;;;;65.30;31.90;;;;;;;1.46;87.89;101583.34;104137;1319;37370;-71
2022/12/04 00:21:05;;;;;;;65.10;29.50;;;;;;;1.44;88.11;101583.48;104132;1322;36992;-71
2022/12/04 00:23:39;;;;;;;71.00;33.80;;;;;;;1.41;88.10;101595.29;104144;1322;37944;-71
2022/12/04 00:26:14;;;;;;;62.70;29.50;;;;;;;1.41;88.05;101604.03;104139;1320;37141;-69
2022/12/04 00:28:48;;;;;;;75.80;33.70;;;;;;;1.41;88.10;101601.28;104141;1319;38336;-70
2022/12/04 00:31:23;;;;;;;76.40;34.80;;;;;;;1.36;88.18;101596.73;104146;1319;37092;-70
2022/12/04 00:33:57;;;;;;;59.20;27.50;;;;;;;1.34;88.23;101598.05;104108;1319;37075;-70
2022/12/04 00:36:31;;;;;;;64.00;30.70;;;;;;;1.33;88.24;101597.70;104132;1323;37260;-70
2022/12/04 00:39:05;;;;;;;72.40;34.00;;;;;;;1.36;88.46;101589.66;104005;1319;37348;-70
2022/12/04 00:41:39;;;;;;;64.40;30.60;;;;;;;1.36;88.63;101594.48;104122;1319;37037;-71
2022/12/04 00:44:13;;;;;;;82.80;38.00;;;;;;;1.35;88.51;101598.09;103934;1325;37217;-72
2022/12/04 00:46:47;;;;;;;61.80;28.60;;;;;;;1.41;88.64;101596.83;103997;1325;38037;-71
2022/12/04 00:49:21;;;;;;;56.90;28.30;;;;;;;1.41;88.53;101596.48;104131;1319;36983;-71
2022/12/04 00:51:55;;;;;;;67.40;32.90;;;;;;;1.39;88.55;101592.30;104140;1319;37026;-74
2022/12/04 00:54:29;;;;;;;60.60;30.30;;;;;;;1.39;88.52;101588.03;103961;1319;36830;-73
2022/12/04 00:57:03;;;;;;;61.00;28.10;;;;;;;1.40;88.55;101584.95;104143;1325;37309;-72
2022/12/04 00:59:38;;;;;;;54.40;26.80;;;;;;;1.40;88.48;101580.64;104138;1319;37332;-71
2022/12/04 01:02:11;;;;;;;57.90;29.00;;;;;;;1.36;88.40;101581.08;104133;1325;36583;-72
2022/12/04 01:04:45;;;;;;;61.10;29.80;;;;;;;1.39;88.51;101580.27;104146;1325;37033;-72
2022/12/04 01:07:19;;;;;;;64.40;31.70;;;;;;;1.41;88.43;101587.02;104125;1319;36021;-68
2022/12/04 01:09:53;;;;;;;68.20;31.20;;;;;;;1.43;88.48;101590.69;104133;1322;37109;-71
2022/12/04 01:12:27;;;;;;;69.50;31.90;;;;;;;1.45;88.56;101595.88;104144;1324;37015;-71
2022/12/04 01:15:01;;;;;;;69.60;32.70;;;;;;;1.46;88.47;101596.40;104128;1319;37887;-72
2022/12/04 01:17:34;;;;;;;62.40;30.20;;;;;;;1.49;88.51;101597.67;104142;1324;37762;-71
2022/12/04 01:20:09;;;;;;;56.70;28.60;;;;;;;1.49;88.40;101597.30;104022;1319;174748;-69
2022/12/04 01:22:43;;;;;;;62.10;30.50;;;;;;;1.44;88.43;101598.60;104162;1319;37016;-74
2022/12/04 01:25:17;;;;;;;65.90;31.00;;;;;;;1.42;88.44;101595.10;103952;1319;37026;-73
2022/12/04 01:27:51;;;;;;;64.20;28.50;;;;;;;1.44;88.52;101596.20;103972;1319;37357;-73
2022/12/04 01:30:25;;;;;;;60.80;29.10;;;;;;;1.42;88.49;101590.99;104096;1320;37032;-73
2022/12/04 01:32:58;;;;;;;68.30;29.80;;;;;;;1.44;88.51;101595.52;104148;1325;37128;-73
2022/12/04 01:35:35;;;;;;;61.90;29.30;;;;;;;1.50;88.51;101600.42;104136;1319;36017;-74
2022/12/04 01:38:10;;;;;;;61.30;30.60;;;;;;;1.47;88.36;101601.92;104126;1319;38327;-74
2022/12/04 01:40:48;;;;;;;56.70;28.10;;;;;;;1.40;88.38;101607.46;104139;1325;36867;-73
2022/12/04 01:43:22;;;;;;;62.80;28.90;;;;;;;1.36;88.49;101602.90;103970;1319;37026;-74
2022/12/04 01:45:57;;;;;;;61.20;29.00;;;;;;;1.38;88.60;101598.12;104114;1325;38206;-73
2022/12/04 01:48:33;;;;;;;55.10;27.30;;;;;;;1.37;88.69;101590.55;104131;1325;36984;-74
2022/12/04 01:51:11;;;;;;;56.00;28.60;;;;;;;1.36;88.77;101586.23;104106;1325;37104;-72
2022/12/04 01:53:47;;;;;;;53.80;28.00;;;;;;;1.33;88.79;101588.60;103940;1325;37048;-74
2022/12/04 01:56:21;;;;;;;57.60;27.30;;;;;;;1.32;88.81;101588.38;103964;1319;37028;-74
2022/12/04 01:58:57;;;;;;;58.80;28.50;;;;;;;1.35;88.96;101585.53;103953;1319;37020;-74
2022/12/04 02:01:32;;;;;;;59.20;28.40;;;;;;;1.37;88.69;101583.49;104149;1325;37142;-74
2022/12/04 02:04:05;;;;;;;56.90;27.30;;;;;;;1.37;88.91;101581.45;104121;1325;37041;-73
2022/12/04 02:06:40;;;;;;;62.40;28.10;;;;;;;1.39;88.96;101580.11;104146;1319;38065;-69
2022/12/04 02:09:14;;;;;;;53.70;26.40;;;;;;;1.38;88.87;101578.02;104156;1319;37038;-71
2022/12/04 02:11:53;;;;;;;50.40;25.50;;;;;;;1.35;88.76;101575.22;104135;1319;37034;-73
2022/12/04 02:14:33;;;;;;;51.90;27.00;;;;;;;1.30;88.82;101573.39;104127;1319;37284;-72
2022/12/04 02:17:13;;;;;;;47.60;24.30;;;;;;;1.25;88.82;101571.42;104162;1325;36319;-69
2022/12/04 02:20:14;;;;;;;46.40;22.80;;;;;;;1.25;89.12;101574.52;104170;1319;38299;-70
2022/12/04 02:23:23;;;;;;;45.70;22.90;;;;;;;1.24;89.04;101567.27;103968;1325;37056;-71
2022/12/04 02:26:12;;;;;;;48.00;23.90;;;;;;;1.23;89.00;101563.98;104174;1320;36455;-71
2022/12/04 02:28:49;;;;;;;50.40;24.20;;;;;;;1.22;89.07;101567.06;103946;1319;39638;-73
2022/12/04 02:31:26;;;;;;;55.90;26.10;;;;;;;1.27;89.06;101567.51;104145;1325;36016;-72
2022/12/04 02:34:04;;;;;;;49.60;23.80;;;;;;;1.36;89.22;101569.73;104161;1322;37283;-72
2022/12/04 02:36:43;;;;;;;55.10;27.40;;;;;;;1.39;88.95;101564.30;104122;1319;38208;-73
2022/12/04 02:39:23;;;;;;;48.30;25.10;;;;;;;1.42;88.92;101568.29;104116;1325;38775;-73
2022/12/04 02:41:59;;;;;;;51.60;26.40;;;;;;;1.40;88.75;101568.44;104157;1315;36767;-72
2022/12/04 02:44:38;;;;;;;50.50;25.70;;;;;;;1.36;88.66;101569.21;104169;1324;36131;-71
2022/12/04 02:47:16;;;;;;;50.00;24.90;;;;;;;1.34;88.89;101572.95;104180;1319;36774;-72
2022/12/04 02:49:57;;;;;;;52.30;26.10;;;;;;;1.31;88.76;101573.41;103982;1319;37051;-73
2022/12/04 02:52:33;;;;;;;47.90;25.50;;;;;;;1.27;88.97;101572.14;104161;1315;37136;-72
2022/12/04 02:55:17;;;;;;;47.80;24.50;;;;;;;1.25;88.92;101573.31;104152;1325;37181;-71
2022/12/04 02:57:53;;;;;;;47.50;25.60;;;;;;;1.27;89.00;101575.93;104155;1319;37072;-71
2022/12/04 03:00:27;;;;;;;53.10;26.90;;;;;;;1.27;89.11;101575.76;104172;1319;36103;-71
2022/12/04 03:03:04;;;;;;;50.40;24.10;;;;;;;1.30;89.12;101568.93;104144;1323;37194;-71
2022/12/04 03:05:43;;;;;;;49.00;23.80;;;;;;;1.31;89.02;101569.64;104144;1319;37104;-70
2022/12/04 03:08:19;;;;;;;49.20;25.10;;;;;;;1.27;88.97;101570.59;104163;1320;38387;-71
2022/12/04 03:10:56;;;;;;;57.10;26.80;;;;;;;1.25;88.97;101567.64;104154;1320;36514;-73
2022/12/04 03:13:35;;;;;;;51.30;25.10;;;;;;;1.28;89.02;101559.63;104151;1323;37120;-73
2022/12/04 03:16:12;;;;;;;48.40;23.70;;;;;;;1.32;89.20;101552.27;104121;1319;37274;-72
2022/12/04 03:18:48;;;;;;;48.90;23.30;;;;;;;1.28;89.06;101554.96;104136;1319;37115;-72
2022/12/04 03:21:23;;;;;;;45.60;23.00;;;;;;;1.23;89.07;101556.42;104129;1323;37023;-70
2022/12/04 03:24:03;;;;;;;44.00;22.80;;;;;;;1.27;89.22;101555.64;103502;1323;914910;-71
2022/12/04 03:26:40;;;;;;;43.80;22.40;;;;;;;1.29;89.20;101555.50;104158;1319;38447;-73
2022/12/04 03:29:16;;;;;;;43.40;21.80;;;;;;;1.29;89.02;101553.11;103915;1319;37127;-71
2022/12/04 03:31:53;;;;;;;47.60;23.20;;;;;;;1.31;89.02;101553.48;103947;1321;36112;-72
2022/12/04 03:34:29;;;;;;;44.20;22.40;;;;;;;1.33;89.08;101552.33;104129;1325;37006;-72
2022/12/04 03:37:06;;;;;;;41.10;21.50;;;;;;;1.32;88.98;101557.11;103961;1326;37058;-73
2022/12/04 03:39:44;;;;;;;44.00;22.20;;;;;;;1.30;88.75;101559.80;104156;1323;37263;-72
2022/12/04 03:42:20;;;;;;;41.30;21.00;;;;;;;1.30;88.82;101560.85;104171;1325;37185;-74
2022/12/04 03:44:58;;;;;;;39.70;21.00;;;;;;;1.30;88.86;101556.04;104172;1319;37118;-72
2022/12/04 03:47:34;;;;;;;41.80;21.30;;;;;;;1.26;88.82;101557.16;104147;1319;37108;-74
2022/12/04 03:50:12;;;;;;;40.90;22.00;;;;;;;1.24;88.84;101554.56;103808;1325;467368;-74
2022/12/04 03:52:50;;;;;;;40.00;21.40;;;;;;;1.27;88.99;101552.02;104185;1323;37023;-71
2022/12/04 03:55:27;;;;;;;37.80;21.40;;;;;;;1.27;88.77;101549.95;103959;1325;37134;-71
2022/12/04 03:58:05;;;;;;;40.60;20.80;;;;;;;1.28;88.88;101546.90;104200;1319;38202;-72
2022/12/04 04:00:41;;;;;;;40.00;20.60;;;;;;;1.24;89.03;101539.42;104160;1325;37073;-72
2022/12/04 04:03:18;;;;;;;39.20;20.30;;;;;;;1.24;88.85;101538.92;104178;1319;37111;-69
2022/12/04 04:05:56;;;;;;;40.50;21.60;;;;;;;1.26;88.80;101540.14;104166;1325;37006;-74
2022/12/04 04:08:34;;;;;;;43.50;22.10;;;;;;;1.26;88.84;101538.27;104125;1319;36025;-73
2022/12/04 04:11:12;;;;;;;41.10;21.70;;;;;;;1.27;89.02;101538.27;104182;1325;37143;-74
2022/12/04 04:25:23;;;;;;;42.60;21.80;;;;;;;1.21;88.89;101537.13;104126;1325;36646;-73
2022/12/04 04:27:57;;;;;;;44.90;21.90;;;;;;;1.14;89.02;101530.81;104176;1325;36413;-72
2022/12/04 04:30:32;;;;;;;38.20;20.40;;;;;;;1.11;88.97;101525.93;103498;1319;914470;-73
2022/12/04 04:33:09;;;;;;;34.60;18.40;;;;;;;1.10;89.00;101520.42;104136;1325;37052;-73
2022/12/04 04:35:47;;;;;;;38.10;18.30;;;;;;;1.11;88.97;101527.66;104154;1325;37186;-72
2022/12/04 04:38:24;;;;;;;36.00;18.40;;;;;;;1.14;89.08;101533.72;104162;1319;37104;-70
2022/12/04 04:41:00;;;;;;;37.00;19.90;;;;;;;1.15;89.08;101533.92;104172;1324;37025;-74
2022/12/04 04:43:37;;;;;;;36.40;18.50;;;;;;;1.19;88.97;101537.45;104161;1319;37176;-74
2022/12/04 04:46:14;;;;;;;37.10;20.20;;;;;;;1.20;88.85;101544.50;104156;1324;37497;-68
2022/12/04 04:48:50;;;;;;;40.20;19.80;;;;;;;1.19;88.92;101548.61;104157;1325;37182;-71
2022/12/04 04:51:24;;;;;;;36.90;18.90;;;;;;;1.15;89.00;101553.16;104183;1325;37199;-74
2022/12/04 04:54:00;;;;;;;37.60;20.30;;;;;;;1.11;89.08;101554.98;104144;1325;36757;-74
2022/12/04 04:56:34;;;;;;;41.90;22.40;;;;;;;1.14;89.19;101554.02;104161;1325;37033;-73
2022/12/04 04:59:08;;;;;;;40.70;19.30;;;;;;;1.18;89.18;101552.21;104143;1325;36490;-73
2022/12/04 05:01:42;;;;;;;38.90;19.90;;;;;;;1.20;88.86;101549.84;104158;1325;37050;-73
2022/12/04 05:04:15;;;;;;;42.90;21.90;;;;;;;1.23;88.94;101555.91;104167;1325;36096;-71
2022/12/04 05:06:49;;;;;;;40.10;20.60;;;;;;;1.21;88.73;101554.33;104133;1319;37186;-72
2022/12/04 05:09:23;;;;;;;41.20;20.20;;;;;;;1.24;88.88;101553.86;104146;1325;37058;-72
2022/12/04 05:11:56;;;;;;;42.00;21.10;;;;;;;1.21;88.76;101551.40;104197;1314;37644;-71
2022/12/04 05:14:30;;;;;;;44.50;21.90;;;;;;;1.21;88.81;101553.98;104149;1322;37214;-72
2022/12/04 05:17:05;;;;;;;43.60;22.60;;;;;;;1.22;88.79;101560.00;104059;1324;172630;-70
2022/12/04 05:19:55;;;;;;;41.80;21.90;;;;;;;1.23;88.93;101559.17;104145;1325;37112;-72
2022/12/04 05:22:31;;;;;;;50.60;26.10;;;;;;;1.30;89.07;101560.67;104169;1325;38220;-69
2022/12/04 05:25:05;;;;;;;49.00;24.90;;;;;;;1.36;89.04;101554.25;104162;1325;38738;-71
2022/12/04 05:27:38;;;;;;;46.80;23.70;;;;;;;1.32;88.80;101562.95;104149;1325;37040;-69
2022/12/04 05:30:13;;;;;;;48.20;24.10;;;;;;;1.28;88.64;101580.75;103928;1319;37011;-71
2022/12/04 05:32:47;;;;;;;43.60;23.90;;;;;;;1.26;88.71;101581.58;104168;1325;36133;-70
2022/12/04 05:35:21;;;;;;;49.10;24.00;;;;;;;1.25;88.65;101576.92;104140;1325;37304;-71
2022/12/04 05:37:54;;;;;;;42.70;21.40;;;;;;;1.28;88.70;101574.39;104148;1319;36401;-74
2022/12/04 05:40:28;;;;;;;42.50;21.80;;;;;;;1.27;88.38;101564.94;103909;1326;37213;-74
2022/12/04 05:43:02;;;;;;;44.60;22.00;;;;;;;1.26;88.57;101562.33;104159;1325;36987;-72
2022/12/04 05:45:37;;;;;;;41.60;23.00;;;;;;;1.23;88.42;101566.05;104099;1325;37058;-69
2022/12/04 05:48:11;;;;;;;49.80;25.10;;;;;;;1.22;88.61;101571.02;104150;1325;37114;-72
2022/12/04 05:50:45;;;;;;;45.70;23.50;;;;;;;1.21;88.45;101567.73;104139;1323;36059;-71
2022/12/04 05:53:19;;;;;;;43.20;22.00;;;;;;;1.17;88.29;101573.50;104145;1325;37084;-74
2022/12/04 05:56:00;;;;;;;43.30;22.20;;;;;;;1.14;88.39;101571.73;104153;1319;38728;-71
2022/12/04 05:58:36;;;;;;;42.30;20.90;;;;;;;1.16;88.51;101566.94;104153;1319;36993;-72
2022/12/04 06:01:16;;;;;;;34.90;19.70;;;;;;;1.19;88.46;101562.02;104176;1319;37317;-72
2022/12/04 06:03:50;;;;;;;39.40;19.90;;;;;;;1.22;88.45;101569.83;103946;1319;37299;-74
2022/12/04 06:06:25;;;;;;;36.60;20.10;;;;;;;1.23;88.30;101574.98;104122;1325;36995;-72
2022/12/04 06:09:00;;;;;;;38.30;20.30;;;;;;;1.23;88.11;101581.34;104148;1322;37238;-74
2022/12/04 06:11:36;;;;;;;38.70;21.60;;;;;;;1.22;88.21;101581.33;104134;1319;36997;-70
2022/12/04 06:14:14;;;;;;;43.90;21.90;;;;;;;1.22;87.95;101578.23;104183;1319;36567;-69
2022/12/04 06:16:48;;;;;;;38.20;20.10;;;;;;;1.21;87.93;101574.24;104130;1325;37017;-71
2022/12/04 06:19:23;;;;;;;37.20;19.50;;;;;;;1.16;87.86;101574.16;104144;1325;37083;-69
2022/12/04 06:21:56;;;;;;;37.00;20.00;;;;;;;1.14;87.84;101574.80;103975;1325;37033;-73
2022/12/04 06:24:31;;;;;;;36.20;18.40;;;;;;;1.14;87.88;101588.74;104158;1325;36083;-74
2022/12/04 06:27:04;;;;;;;36.70;19.90;;;;;;;1.14;87.83;101594.58;104121;1325;37012;-71
2022/12/04 06:29:38;;;;;;;41.80;21.50;;;;;;;1.14;87.88;101599.90;103935;1319;37076;-74
2022/12/04 06:32:13;;;;;;;36.70;19.40;;;;;;;1.14;87.98;101599.05;103962;1325;36212;-73
2022/12/04 06:34:46;;;;;;;34.90;17.70;;;;;;;1.14;87.78;101596.98;104166;1325;37057;-70
2022/12/04 06:37:20;;;;;;;38.30;19.60;;;;;;;1.12;87.75;101597.97;103978;1325;36254;-73
2022/12/04 06:39:54;;;;;;;34.90;19.60;;;;;;;1.14;87.91;101593.70;104051;1325;174765;-74
2022/12/04 06:42:28;;;;;;;37.60;21.00;;;;;;;1.18;87.86;101596.00;104181;1320;37444;-69
2022/12/04 06:45:01;;;;;;;41.80;21.80;;;;;;;1.18;87.84;101600.66;104142;1325;37073;-70
2022/12/04 06:47:37;;;;;;;36.80;20.50;;;;;;;1.19;87.85;101604.30;104170;1323;37037;-69
2022/12/04 06:50:12;;;;;;;35.90;19.50;;;;;;;1.17;87.82;101607.34;103974;1325;37221;-69
2022/12/04 06:52:46;;;;;;;39.90;21.60;;;;;;;1.19;87.81;101604.48;104175;1325;37204;-73
2022/12/04 06:55:20;;;;;;;39.10;20.20;;;;;;;1.23;87.93;101605.05;104147;1325;36030;-71
2022/12/04 06:57:54;;;;;;;40.60;21.60;;;;;;;1.23;87.73;101606.11;104175;1323;37445;-74
2022/12/04 07:00:28;;;;;;;42.80;22.20;;;;;;;1.18;87.60;101610.30;104120;1325;36918;-74
2022/12/04 07:03:02;;;;;;;38.70;20.50;;;;;;;1.16;87.75;101615.05;104164;1319;36525;-71
2022/12/04 07:05:36;;;;;;;41.90;21.10;;;;;;;1.14;87.69;101609.88;103929;1327;36943;-71
2022/12/04 07:08:10;;;;;;;41.30;21.60;;;;;;;1.14;87.89;101606.59;103853;1319;174824;-71
2022/12/04 07:10:45;;;;;;;41.70;21.50;;;;;;;1.15;88.02;101599.23;104173;1325;37034;-71
2022/12/04 07:13:19;;;;;;;43.90;23.80;;;;;;;1.22;88.18;101604.86;103486;1319;912513;-72
2022/12/04 07:15:53;;;;;;;50.00;24.00;;;;;;;1.25;87.98;101602.71;104185;1319;37450;-71
2022/12/04 07:18:29;;;;;;;47.50;24.10;;;;;;;1.23;87.90;101607.48;104173;1322;37106;-71
2022/12/04 07:21:06;;;;;;;40.50;19.90;;;;;;;1.19;87.71;101599.48;104134;1323;37639;-72
2022/12/04 07:23:40;;;;;;;44.40;22.00;;;;;;;1.17;87.71;101602.19;104166;1325;37117;-74
2022/12/04 07:26:15;;;;;;;40.40;20.10;;;;;;;1.14;87.68;101605.21;104116;1325;37134;-73
2022/12/04 07:28:48;;;;;;;40.20;21.90;;;;;;;1.09;87.70;101597.55;104153;1320;37172;-73
2022/12/04 07:31:24;;;;;;;42.50;21.60;;;;;;;1.07;87.77;101599.92;103929;1319;37242;-71
2022/12/04 07:34:01;;;;;;;37.30;20.40;;;;;;;1.06;87.82;101600.75;104153;1325;36306;-72
2022/12/04 07:36:35;;;;;;;33.90;19.30;;;;;;;1.00;87.66;101607.17;104162;1325;37154;-73
2022/12/04 07:39:09;;;;;;;35.40;18.70;;;;;;;1.02;87.87;101612.37;104166;1319;37194;-73
2022/12/04 07:41:43;;;;;;;33.70;18.10;;;;;;;1.04;87.63;101620.48;104149;1325;37653;-72
2022/12/04 07:44:17;;;;;;;36.10;18.90;;;;;;;1.08;87.88;101626.74;104136;1320;36238;-72
2022/12/04 07:46:55;;;;;;;38.30;21.60;;;;;;;1.17;87.89;101629.86;104154;1319;37068;-70
2022/12/04 07:49:29;;;;;;;40.10;21.80;;;;;;;1.22;87.69;101628.06;104141;1325;37017;-73
2022/12/04 07:52:03;;;;;;;34.50;20.30;;;;;;;1.23;87.42;101629.81;104124;1319;37108;-75
2022/12/04 07:54:37;;;;;;;33.80;18.70;;;;;;;1.25;87.44;101624.86;104148;1319;37023;-74
2022/12/04 07:57:11;;;;;;;31.20;17.70;;;;;;;1.28;87.35;101619.97;104156;1325;36924;-75
2022/12/04 07:59:46;;;;;;;30.70;18.80;;;;;;;1.28;87.01;101626.32;104119;1325;36664;-76
2022/12/04 08:02:20;;;;;;;36.80;21.30;;;;;;;1.28;87.01;101631.30;104180;1319;36133;-72
2022/12/04 08:04:54;;;;;;;34.00;19.20;;;;;;;1.31;86.91;101633.92;104131;1319;38201;-72
2022/12/04 08:07:28;;;;;;;35.20;19.20;;;;;;;1.27;86.58;101633.86;104141;1319;37727;-73
2022/12/04 08:10:02;;;;;;;28.40;17.40;;;;;;;1.23;86.46;101632.23;104129;1319;37197;-71
2022/12/04 08:12:36;;;;;;;31.80;17.80;;;;;;;1.20;86.57;101626.50;104148;1320;37082;-73
2022/12/04 08:15:12;;;;;;;28.50;18.30;;;;;;;1.23;86.69;101627.23;104133;1319;37002;-76
2022/12/04 08:17:46;;;;;;;34.20;20.40;;;;;;;1.31;86.90;101629.63;104160;1320;37177;-73
2022/12/04 08:20:21;;;;;;;36.20;20.00;;;;;;;1.32;86.42;101633.10;104156;1324;37026;-72
2022/12/04 08:22:55;;;;;;;30.20;17.50;;;;;;;1.26;86.32;101626.80;104121;1319;37335;-74
2022/12/04 08:25:30;;;;;;;30.50;18.70;;;;;;;1.26;86.26;101630.05;104155;1319;38802;-74
2022/12/04 08:28:07;;;;;;;29.20;17.00;;;;;;;1.27;86.39;101623.36;104157;1319;37071;-74
2022/12/04 08:30:40;;;;;;;30.10;17.50;;;;;;;1.29;86.34;101627.02;103940;1319;37178;-71
2022/12/04 08:33:17;;;;;;;37.20;21.70;;;;;;;1.25;86.28;101626.59;104129;1319;37168;-73
2022/12/04 08:35:56;;;;;;;36.00;20.70;;;;;;;1.23;86.32;101622.77;104196;1322;37654;-75
2022/12/04 08:38:30;;;;;;;30.30;18.00;;;;;;;1.25;86.32;101624.36;104127;1323;37015;-73
2022/12/04 08:41:07;;;;;;;29.20;17.00;;;;;;;1.24;86.34;101623.31;104153;1320;37027;-72
2022/12/04 08:43:44;;;;;;;31.70;18.40;;;;;;;1.22;86.30;101622.40;104145;1317;37582;-75
2022/12/04 08:46:20;;;;;;;33.80;19.90;;;;;;;1.23;86.35;101618.30;104153;1325;36186;-71
2022/12/04 08:48:56;;;;;;;37.20;20.20;;;;;;;1.26;86.36;101619.90;104147;1325;38677;-71
2022/12/04 08:51:33;;;;;;;29.10;17.20;;;;;;;1.24;86.19;101617.47;104150;1318;37700;-73
2022/12/04 08:54:08;;;;;;;29.50;18.80;;;;;;;1.20;86.12;101612.40;104155;1324;37166;-72
2022/12/04 08:56:43;;;;;;;29.90;17.80;;;;;;;1.19;86.20;101611.69;104138;1319;37129;-71
2022/12/04 08:59:18;;;;;;;30.00;17.30;;;;;;;1.23;86.52;101611.42;104161;1325;38455;-71
2022/12/04 09:01:53;;;;;;;34.10;19.00;;;;;;;1.31;86.50;101615.53;104149;1320;37066;-75
2022/12/04 09:04:28;;;;;;;31.40;19.40;;;;;;;1.35;86.32;101615.61;104139;1322;38260;-74
2022/12/04 09:07:06;;;;;;;33.60;19.50;;;;;;;1.36;86.18;101618.55;104151;1317;37004;-72
2022/12/04 09:09:41;;;;;;;31.80;18.20;;;;;;;1.33;86.02;101624.52;104179;1322;37023;-72
2022/12/04 09:12:18;;;;;;;29.70;18.50;;;;;;;1.28;85.90;101617.71;104146;1324;36988;-73
2022/12/04 09:14:55;;;;;;;27.80;17.10;;;;;;;1.31;86.12;101614.67;103928;1319;37087;-71
2022/12/04 09:17:29;;;;;;;28.80;18.00;;;;;;;1.36;86.18;101617.86;104159;1324;36989;-74
2022/12/04 09:20:06;;;;;;;31.40;19.70;;;;;;;1.37;85.92;101610.33;104142;1319;37469;-76
2022/12/04 09:22:40;;;;;;;34.00;19.70;;;;;;;1.35;85.89;101611.15;104117;1319;37471;-71
2022/12/04 09:25:14;;;;;;;32.10;18.80;;;;;;;1.33;85.77;101615.73;104178;1319;38253;-72
2022/12/04 09:27:48;;;;;;;31.40;18.80;;;;;;;1.27;85.93;101610.14;104182;1319;37541;-74
2022/12/04 09:30:22;;;;;;;29.10;18.50;;;;;;;1.27;85.97;101614.07;104154;1319;37342;-75
2022/12/04 09:32:56;;;;;;;33.10;19.50;;;;;;;1.27;86.10;101610.82;104154;1319;37052;-73
2022/12/04 09:35:34;;;;;;;33.00;19.80;;;;;;;1.31;86.19;101610.73;103952;1319;37784;-71
2022/12/04 09:38:09;;;;;;;32.10;19.10;;;;;;;1.35;86.18;101607.72;104133;1319;37143;-72
2022/12/04 09:40:48;;;;;;;34.30;20.30;;;;;;;1.38;86.09;101605.69;104160;1319;37178;-72
2022/12/04 09:43:29;;;;;;;28.80;17.60;;;;;;;1.40;86.05;101602.30;104145;1319;36998;-69
2022/12/04 09:46:12;;;;;;;26.70;17.10;;;;;;;1.42;85.91;101605.09;104145;1319;38186;-72
2022/12/04 09:48:47;;;;;;;28.70;17.80;;;;;;;1.40;85.81;101599.55;104148;1325;36865;-72
2022/12/04 09:51:25;;;;;;;27.50;17.50;;;;;;;1.41;85.84;101604.56;104136;1319;37169;-73
2022/12/04 09:54:02;;;;;;;32.20;20.10;;;;;;;1.44;85.79;101600.16;104109;1319;37012;-70
2022/12/04 09:56:37;;;;;;;37.50;20.90;;;;;;;1.47;85.63;101590.23;104193;1319;37215;-73
2022/12/04 09:59:16;;;;;;;32.90;19.90;;;;;;;1.47;85.60;101593.16;104137;1319;36031;-73
2022/12/04 10:01:55;;;;;;;28.20;17.50;;;;;;;1.46;85.55;101588.66;104169;1325;36989;-71
2022/12/04 10:04:30;;;;;;;26.20;16.60;;;;;;;1.49;85.64;101582.19;104192;1319;37084;-72
2022/12/04 10:07:11;;;;;;;34.00;20.10;;;;;;;1.54;85.61;101580.40;103958;1325;37139;-74
2022/12/04 10:09:50;;;;;;;32.30;19.80;;;;;;;1.60;85.61;101579.27;104181;1319;37291;-74
2022/12/04 10:12:29;;;;;;;29.70;18.60;;;;;;;1.67;85.74;101574.25;103961;1319;38257;-72
2022/12/04 10:15:15;;;;;;;33.70;20.00;;;;;;;1.73;85.61;101572.30;104162;1324;37448;-72
2022/12/04 10:17:58;;;;;;;30.40;18.10;;;;;;;1.78;85.20;101571.53;103935;1319;37341;-73
2022/12/04 10:20:53;;;;;;;26.50;16.90;;;;;;;1.79;85.06;101574.13;104148;1324;37029;-73
2022/12/04 10:23:34;;;;;;;29.20;19.10;;;;;;;1.84;84.96;101574.38;103952;1319;37587;-74
2022/12/04 10:26:12;;;;;;;33.40;19.90;;;;;;;1.88;85.09;101573.59;104166;1320;36804;-73
2022/12/04 10:28:48;;;;;;;35.30;20.60;;;;;;;1.93;85.15;101572.65;103946;1319;37164;-74
2022/12/04 10:31:22;;;;;;;29.10;18.50;;;;;;;1.96;84.51;101570.63;104113;1319;37095;-74
2022/12/04 10:33:59;;;;;;;29.40;17.60;;;;;;;1.96;84.55;101564.76;104143;1320;37731;-75
2022/12/04 10:36:35;;;;;;;32.00;19.40;;;;;;;2.01;84.66;101563.46;104160;1319;38196;-73
2022/12/04 10:39:15;;;;;;;34.70;20.50;;;;;;;2.01;84.19;101559.16;104127;1319;37101;-72
2022/12/04 10:41:53;;;;;;;30.30;18.40;;;;;;;1.97;84.00;101556.70;104030;1319;187382;-73
2022/12/04 10:44:27;;;;;;;30.40;19.20;;;;;;;1.96;84.11;101553.73;104154;1319;36995;-72
2022/12/04 10:47:04;;;;;;;28.50;18.70;;;;;;;1.95;84.01;101556.33;103794;1325;36220;-74
2022/12/04 10:49:39;;;;;;;30.90;18.80;;;;;;;1.93;83.89;101550.27;104185;1325;37301;-74
2022/12/04 10:52:14;;;;;;;34.60;20.60;;;;;;;1.95;84.25;101554.95;104145;1319;37252;-72
2022/12/04 10:54:50;;;;;;;30.50;19.70;;;;;;;1.96;84.27;101547.22;104170;1319;37095;-72
2022/12/04 10:57:38;;;;;;;27.50;18.50;;;;;;;1.96;84.01;101548.93;104160;1319;38191;-72
2022/12/04 11:00:37;;;;;;;28.50;17.50;;;;;;;1.97;84.26;101537.95;104159;1321;37269;-73
2022/12/04 11:03:24;;;;;;;30.30;19.00;;;;;;;1.97;84.06;101535.52;103934;1319;36653;-73
2022/12/04 11:06:00;;;;;;;32.00;19.10;;;;;;;1.99;84.09;101528.69;104150;1319;37222;-71
2022/12/04 11:08:38;;;;;;;26.30;18.10;;;;;;;1.97;84.02;101518.48;104125;1319;37107;-72
2022/12/04 11:11:14;;;;;;;29.70;17.10;;;;;;;1.96;84.25;101518.82;104186;1319;36953;-73
2022/12/04 11:13:49;;;;;;;26.00;16.70;;;;;;;2.00;84.18;101521.11;103943;1325;37354;-74
2022/12/04 11:16:39;;;;;;;27.40;17.70;;;;;;;2.01;84.00;101525.96;104112;1324;37127;-74
2022/12/04 11:19:28;;;;;;;28.60;19.00;;;;;;;2.07;84.15;101529.66;104137;1311;37000;-73
2022/12/04 11:22:06;;;;;;;30.00;19.40;;;;;;;2.09;83.90;101526.08;104146;1319;37122;-72
2022/12/04 11:24:41;;;;;;;28.30;18.40;;;;;;;2.11;84.09;101524.02;104174;1319;37005;-73
2022/12/04 11:27:26;;;;;;;25.40;16.50;;;;;;;2.11;83.80;101524.22;104138;1319;37078;-74
2022/12/04 11:30:00;;;;;;;24.10;15.80;;;;;;;2.10;83.64;101521.62;104155;1317;36107;-73
2022/12/04 11:32:36;;;;;;;29.80;18.90;;;;;;;2.09;83.69;101517.48;104169;1293;36631;-73
2022/12/04 11:35:16;;;;;;;28.00;18.70;;;;;;;2.08;83.60;101519.01;103947;1315;37351;-75
2022/12/04 11:37:58;;;;;;;26.30;17.70;;;;;;;2.08;83.76;101516.95;104141;1319;36344;-72
2022/12/04 11:40:34;;;;;;;25.20;16.70;;;;;;;2.12;83.73;101520.09;103513;1319;912255;-72
2022/12/04 11:43:14;;;;;;;26.70;16.50;;;;;;;2.08;83.34;101518.31;104150;1319;37079;-73
2022/12/04 11:45:59;;;;;;;27.10;16.70;;;;;;;1.99;83.47;101513.19;104139;1319;37011;-73
2022/12/04 11:48:41;;;;;;;29.30;19.00;;;;;;;1.99;83.61;101513.70;103938;1324;37048;-73
2022/12/04 11:51:20;;;;;;;31.70;19.80;;;;;;;2.02;84.12;101513.92;103856;1319;37743;-72
2022/12/04 11:53:59;;;;;;;31.40;20.80;;;;;;;2.04;83.71;101519.28;104149;1309;37019;-70
2022/12/04 11:56:34;;;;;;;;;;;;;;;2.00;83.68;101517.86;104150;1319;37184;-70
2022/12/04 11:59:34;;;;;;;26.70;16.00;;;;;;;1.95;83.84;101521.55;103891;1322;37210;-74
2022/12/04 12:02:31;;;;;;;25.20;16.10;;;;;;;1.96;83.90;101521.58;103939;1319;37157;-71